Terminal Aerodrome Forecast
Issued by NWS

Home | Current Version | Previous Version | Text Only | Print | Product List | Glossary Off
Versions: 1 2 3 4 5 6 7 8 9 10 11 12 13 14 15 16

698
FTUS43 KUNR 090524
TAFGCC
TAF
KGCC 090524Z 0906/1006 13005KT P6SM BKN200
     FM091100 16005KT P6SM SCT025 OVC100=

USA.gov is the U.S. government's official web portal to all federal, state and local government web resources and services.